sensor_id;sensor_type;location;lat;lon;timestamp;temperature;humidity
69261;DHT22;56378;52.404;20.816;2023-03-31T00:02:22;8.70;99.90
69261;DHT22;56378;52.404;20.816;2023-03-31T00:04:48;8.70;99.90
69261;DHT22;56378;52.404;20.816;2023-03-31T00:07:20;8.80;99.90
69261;DHT22;56378;52.404;20.816;2023-03-31T00:09:49;8.80;99.90
69261;DHT22;56378;52.404;20.816;2023-03-31T00:12:20;8.80;99.90
69261;DHT22;56378;52.404;20.816;2023-03-31T00:14:46;8.80;99.90
69261;DHT22;56378;52.404;20.816;2023-03-31T00:17:12;8.80;99.90
69261;DHT22;56378;52.404;20.816;2023-03-31T00:19:39;8.80;99.90
69261;DHT22;56378;52.404;20.816;2023-03-31T00:22:06;8.80;99.90
69261;DHT22;56378;52.404;20.816;2023-03-31T00:24:32;8.80;99.90
69261;DHT22;56378;52.404;20.816;2023-03-31T00:26:59;8.80;99.90
69261;DHT22;56378;52.404;20.816;2023-03-31T00:29:25;8.80;99.90
69261;DHT22;56378;52.404;20.816;2023-03-31T00:31:51;8.80;99.90
69261;DHT22;56378;52.404;20.816;2023-03-31T00:34:17;8.80;99.90
69261;DHT22;56378;52.404;20.816;2023-03-31T00:36:43;8.80;99.90
69261;DHT22;56378;52.404;20.816;2023-03-31T00:39:14;8.80;99.90
69261;DHT22;56378;52.404;20.816;2023-03-31T00:41:40;8.80;99.90
69261;DHT22;56378;52.404;20.816;2023-03-31T00:44:13;8.80;99.90
69261;DHT22;56378;52.404;20.816;2023-03-31T00:51:54;8.80;99.90
69261;DHT22;56378;52.404;20.816;2023-03-31T00:54:22;8.80;99.90
69261;DHT22;56378;52.404;20.816;2023-03-31T00:56:52;8.80;99.90
69261;DHT22;56378;52.404;20.816;2023-03-31T00:59:22;8.80;99.90
69261;DHT22;56378;52.404;20.816;2023-03-31T01:01:53;8.80;99.90
69261;DHT22;56378;52.404;20.816;2023-03-31T01:04:19;8.80;99.90
69261;DHT22;56378;52.404;20.816;2023-03-31T01:06:59;8.80;99.90
69261;DHT22;56378;52.404;20.816;2023-03-31T01:09:30;8.80;99.90
69261;DHT22;56378;52.404;20.816;2023-03-31T01:12:01;8.80;99.90
69261;DHT22;56378;52.404;20.816;2023-03-31T01:14:29;8.80;99.90
69261;DHT22;56378;52.404;20.816;2023-03-31T01:16:55;8.80;99.90
69261;DHT22;56378;52.404;20.816;2023-03-31T01:24:57;8.80;99.90
69261;DHT22;56378;52.404;20.816;2023-03-31T01:27:56;8.80;99.90
69261;DHT22;56378;52.404;20.816;2023-03-31T01:44:36;8.80;99.90
69261;DHT22;56378;52.404;20.816;2023-03-31T01:57:35;8.80;99.90
69261;DHT22;56378;52.404;20.816;2023-03-31T02:00:10;8.80;99.90
69261;DHT22;56378;52.404;20.816;2023-03-31T02:02:47;8.70;99.90
69261;DHT22;56378;52.404;20.816;2023-03-31T02:05:19;8.70;99.90
69261;DHT22;56378;52.404;20.816;2023-03-31T02:07:55;8.70;99.90
69261;DHT22;56378;52.404;20.816;2023-03-31T02:10:25;8.80;99.90
69261;DHT22;56378;52.404;20.816;2023-03-31T02:12:54;8.80;99.90
69261;DHT22;56378;52.404;20.816;2023-03-31T02:15:25;8.80;99.90
69261;DHT22;56378;52.404;20.816;2023-03-31T02:17:55;8.80;99.90
69261;DHT22;56378;52.404;20.816;2023-03-31T02:20:23;8.80;99.90
69261;DHT22;56378;52.404;20.816;2023-03-31T02:22:54;8.80;99.90
69261;DHT22;56378;52.404;20.816;2023-03-31T02:25:27;8.80;99.90
69261;DHT22;56378;52.404;20.816;2023-03-31T02:27:57;8.80;99.90
69261;DHT22;56378;52.404;20.816;2023-03-31T02:30:40;8.80;99.90
69261;DHT22;56378;52.404;20.816;2023-03-31T02:33:09;8.70;99.90
69261;DHT22;56378;52.404;20.816;2023-03-31T02:35:35;8.70;99.90
69261;DHT22;56378;52.404;20.816;2023-03-31T02:38:01;8.70;99.90
69261;DHT22;56378;52.404;20.816;2023-03-31T02:40:28;8.70;99.90
69261;DHT22;56378;52.404;20.816;2023-03-31T02:42:55;8.60;99.90
69261;DHT22;56378;52.404;20.816;2023-03-31T02:45:41;8.60;99.90
69261;DHT22;56378;52.404;20.816;2023-03-31T02:48:37;8.60;99.90
69261;DHT22;56378;52.404;20.816;2023-03-31T02:56:32;8.60;99.90
69261;DHT22;56378;52.404;20.816;2023-03-31T03:10:14;8.60;99.90
69261;DHT22;56378;52.404;20.816;2023-03-31T03:15:17;8.60;99.90
69261;DHT22;56378;52.404;20.816;2023-03-31T03:17:49;8.60;99.90
69261;DHT22;56378;52.404;20.816;2023-03-31T03:20:19;8.60;99.90
69261;DHT22;56378;52.404;20.816;2023-03-31T03:22:45;8.50;99.90
69261;DHT22;56378;52.404;20.816;2023-03-31T03:25:13;8.50;99.90
69261;DHT22;56378;52.404;20.816;2023-03-31T03:27:39;8.50;99.90
69261;DHT22;56378;52.404;20.816;2023-03-31T03:30:08;8.50;99.90
69261;DHT22;56378;52.404;20.816;2023-03-31T03:32:34;8.40;99.90
69261;DHT22;56378;52.404;20.816;2023-03-31T03:35:00;8.40;99.90
69261;DHT22;56378;52.404;20.816;2023-03-31T03:37:27;8.40;99.90
69261;DHT22;56378;52.404;20.816;2023-03-31T03:39:53;8.40;99.90
69261;DHT22;56378;52.404;20.816;2023-03-31T03:42:18;8.40;99.90
69261;DHT22;56378;52.404;20.816;2023-03-31T03:44:44;8.30;99.90
69261;DHT22;56378;52.404;20.816;2023-03-31T03:47:10;8.30;99.90
69261;DHT22;56378;52.404;20.816;2023-03-31T03:49:36;8.30;99.90
69261;DHT22;56378;52.404;20.816;2023-03-31T03:52:02;8.30;99.90
69261;DHT22;56378;52.404;20.816;2023-03-31T03:54:28;8.30;99.90
69261;DHT22;56378;52.404;20.816;2023-03-31T03:56:54;8.30;99.90
69261;DHT22;56378;52.404;20.816;2023-03-31T03:59:20;8.20;99.90
69261;DHT22;56378;52.404;20.816;2023-03-31T04:01:45;8.20;99.90
69261;DHT22;56378;52.404;20.816;2023-03-31T04:04:12;8.20;99.90
69261;DHT22;56378;52.404;20.816;2023-03-31T04:06:38;8.10;99.90
69261;DHT22;56378;52.404;20.816;2023-03-31T04:09:04;8.10;99.90
69261;DHT22;56378;52.404;20.816;2023-03-31T04:11:30;8.00;99.90
69261;DHT22;56378;52.404;20.816;2023-03-31T04:13:56;8.00;99.90
69261;DHT22;56378;52.404;20.816;2023-03-31T04:16:22;7.90;99.90
69261;DHT22;56378;52.404;20.816;2023-03-31T04:18:51;7.90;99.90
69261;DHT22;56378;52.404;20.816;2023-03-31T04:21:21;7.80;99.90
69261;DHT22;56378;52.404;20.816;2023-03-31T04:23:52;7.80;99.90
69261;DHT22;56378;52.404;20.816;2023-03-31T04:26:28;7.70;99.90
69261;DHT22;56378;52.404;20.816;2023-03-31T04:29:08;7.60;99.90
69261;DHT22;56378;52.404;20.816;2023-03-31T04:31:34;7.60;99.90
69261;DHT22;56378;52.404;20.816;2023-03-31T04:34:04;7.60;99.90
69261;DHT22;56378;52.404;20.816;2023-03-31T04:36:32;7.60;99.90
69261;DHT22;56378;52.404;20.816;2023-03-31T04:38:58;7.50;99.90
69261;DHT22;56378;52.404;20.816;2023-03-31T04:41:25;7.50;99.90
69261;DHT22;56378;52.404;20.816;2023-03-31T04:43:54;7.50;99.90
69261;DHT22;56378;52.404;20.816;2023-03-31T04:46:20;7.50;99.90
69261;DHT22;56378;52.404;20.816;2023-03-31T04:48:46;7.40;99.90
69261;DHT22;56378;52.404;20.816;2023-03-31T04:51:12;7.40;99.90
69261;DHT22;56378;52.404;20.816;2023-03-31T04:53:40;7.40;99.90
69261;DHT22;56378;52.404;20.816;2023-03-31T04:56:06;7.50;99.90
69261;DHT22;56378;52.404;20.816;2023-03-31T04:58:32;7.50;99.90
69261;DHT22;56378;52.404;20.816;2023-03-31T05:00:57;7.60;99.90
69261;DHT22;56378;52.404;20.816;2023-03-31T05:03:23;7.60;99.90
69261;DHT22;56378;52.404;20.816;2023-03-31T05:05:49;7.70;99.90
69261;DHT22;56378;52.404;20.816;2023-03-31T05:08:15;7.70;99.90
69261;DHT22;56378;52.404;20.816;2023-03-31T05:10:41;7.80;99.90
69261;DHT22;56378;52.404;20.816;2023-03-31T05:13:09;7.90;99.90
69261;DHT22;56378;52.404;20.816;2023-03-31T05:15:37;7.90;99.90
69261;DHT22;56378;52.404;20.816;2023-03-31T05:18:04;8.00;99.90
69261;DHT22;56378;52.404;20.816;2023-03-31T05:20:31;8.00;99.90
69261;DHT22;56378;52.404;20.816;2023-03-31T05:22:57;8.00;99.90
69261;DHT22;56378;52.404;20.816;2023-03-31T05:25:22;8.00;99.90
69261;DHT22;56378;52.404;20.816;2023-03-31T05:27:48;8.10;99.90
69261;DHT22;56378;52.404;20.816;2023-03-31T05:30:16;8.00;99.90
69261;DHT22;56378;52.404;20.816;2023-03-31T05:32:42;8.00;99.90
69261;DHT22;56378;52.404;20.816;2023-03-31T05:35:09;8.00;99.90
69261;DHT22;56378;52.404;20.816;2023-03-31T05:37:35;8.10;99.90
69261;DHT22;56378;52.404;20.816;2023-03-31T05:40:01;8.10;99.90
69261;DHT22;56378;52.404;20.816;2023-03-31T05:42:29;8.10;99.90
69261;DHT22;56378;52.404;20.816;2023-03-31T05:44:55;8.10;99.90
69261;DHT22;56378;52.404;20.816;2023-03-31T05:47:21;8.20;99.90
69261;DHT22;56378;52.404;20.816;2023-03-31T05:49:47;8.20;99.90
69261;DHT22;56378;52.404;20.816;2023-03-31T05:52:13;8.20;99.90
69261;DHT22;56378;52.404;20.816;2023-03-31T05:54:39;8.20;99.90
69261;DHT22;56378;52.404;20.816;2023-03-31T05:57:06;8.20;99.90
69261;DHT22;56378;52.404;20.816;2023-03-31T05:59:32;8.30;99.90
69261;DHT22;56378;52.404;20.816;2023-03-31T06:02:00;8.30;99.90
69261;DHT22;56378;52.404;20.816;2023-03-31T06:04:26;8.30;99.90
69261;DHT22;56378;52.404;20.816;2023-03-31T06:06:52;8.40;99.90
69261;DHT22;56378;52.404;20.816;2023-03-31T06:09:19;8.40;99.90
69261;DHT22;56378;52.404;20.816;2023-03-31T06:11:44;8.50;99.90
69261;DHT22;56378;52.404;20.816;2023-03-31T06:14:11;8.50;99.90
69261;DHT22;56378;52.404;20.816;2023-03-31T06:16:37;8.70;99.90
69261;DHT22;56378;52.404;20.816;2023-03-31T06:19:03;8.90;99.90
69261;DHT22;56378;52.404;20.816;2023-03-31T06:21:29;9.10;99.90
69261;DHT22;56378;52.404;20.816;2023-03-31T06:23:55;9.20;99.90
69261;DHT22;56378;52.404;20.816;2023-03-31T06:26:22;9.30;99.90
69261;DHT22;56378;52.404;20.816;2023-03-31T06:28:48;9.30;99.90
69261;DHT22;56378;52.404;20.816;2023-03-31T06:31:20;9.30;99.90
69261;DHT22;56378;52.404;20.816;2023-03-31T06:33:46;9.30;99.90
69261;DHT22;56378;52.404;20.816;2023-03-31T06:36:14;9.30;99.90
69261;DHT22;56378;52.404;20.816;2023-03-31T06:38:40;9.30;99.90
69261;DHT22;56378;52.404;20.816;2023-03-31T06:41:08;9.30;99.90
69261;DHT22;56378;52.404;20.816;2023-03-31T06:43:34;9.30;99.90
69261;DHT22;56378;52.404;20.816;2023-03-31T06:46:00;9.30;99.90
69261;DHT22;56378;52.404;20.816;2023-03-31T06:48:25;9.30;99.90
69261;DHT22;56378;52.404;20.816;2023-03-31T06:50:57;9.40;99.90
69261;DHT22;56378;52.404;20.816;2023-03-31T06:53:23;9.50;99.90
69261;DHT22;56378;52.404;20.816;2023-03-31T06:55:49;9.60;99.90
69261;DHT22;56378;52.404;20.816;2023-03-31T06:58:15;9.70;99.90
69261;DHT22;56378;52.404;20.816;2023-03-31T07:00:41;10.00;99.90
69261;DHT22;56378;52.404;20.816;2023-03-31T07:03:06;10.50;99.90
69261;DHT22;56378;52.404;20.816;2023-03-31T07:05:33;10.80;99.90
69261;DHT22;56378;52.404;20.816;2023-03-31T07:08:00;10.90;99.90
69261;DHT22;56378;52.404;20.816;2023-03-31T07:10:27;11.00;98.60
69261;DHT22;56378;52.404;20.816;2023-03-31T07:12:54;11.00;98.80
69261;DHT22;56378;52.404;20.816;2023-03-31T07:15:20;11.00;97.20
69261;DHT22;56378;52.404;20.816;2023-03-31T07:17:47;11.00;97.00
69261;DHT22;56378;52.404;20.816;2023-03-31T07:20:16;11.20;97.50
69261;DHT22;56378;52.404;20.816;2023-03-31T07:22:44;11.40;95.80
69261;DHT22;56378;52.404;20.816;2023-03-31T07:25:12;11.60;93.70
69261;DHT22;56378;52.404;20.816;2023-03-31T07:27:38;11.60;94.00
69261;DHT22;56378;52.404;20.816;2023-03-31T07:30:06;11.50;93.30
69261;DHT22;56378;52.404;20.816;2023-03-31T07:32:32;11.50;92.40
69261;DHT22;56378;52.404;20.816;2023-03-31T07:34:58;11.40;92.40
69261;DHT22;56378;52.404;20.816;2023-03-31T07:37:24;11.40;92.80
69261;DHT22;56378;52.404;20.816;2023-03-31T07:39:50;11.40;93.30
69261;DHT22;56378;52.404;20.816;2023-03-31T07:42:16;11.40;92.00
69261;DHT22;56378;52.404;20.816;2023-03-31T07:44:42;11.40;91.60
69261;DHT22;56378;52.404;20.816;2023-03-31T07:47:07;11.30;92.20
69261;DHT22;56378;52.404;20.816;2023-03-31T07:49:34;11.40;92.70
69261;DHT22;56378;52.404;20.816;2023-03-31T07:52:00;11.50;92.90
69261;DHT22;56378;52.404;20.816;2023-03-31T07:54:26;11.70;89.20
69261;DHT22;56378;52.404;20.816;2023-03-31T07:56:52;11.90;88.40
69261;DHT22;56378;52.404;20.816;2023-03-31T07:59:19;12.00;88.60
69261;DHT22;56378;52.404;20.816;2023-03-31T08:01:45;12.10;88.70
69261;DHT22;56378;52.404;20.816;2023-03-31T08:04:11;12.30;88.00
69261;DHT22;56378;52.404;20.816;2023-03-31T08:06:38;12.40;87.20
69261;DHT22;56378;52.404;20.816;2023-03-31T08:09:04;12.40;86.90
69261;DHT22;56378;52.404;20.816;2023-03-31T08:11:32;12.50;85.40
69261;DHT22;56378;52.404;20.816;2023-03-31T08:13:58;12.70;84.70
69261;DHT22;56378;52.404;20.816;2023-03-31T08:16:24;12.70;84.10
69261;DHT22;56378;52.404;20.816;2023-03-31T08:18:50;12.60;83.70
69261;DHT22;56378;52.404;20.816;2023-03-31T08:21:16;12.50;84.60
69261;DHT22;56378;52.404;20.816;2023-03-31T08:23:42;12.40;85.50
69261;DHT22;56378;52.404;20.816;2023-03-31T08:26:13;12.40;84.80
69261;DHT22;56378;52.404;20.816;2023-03-31T08:28:39;12.40;85.80
69261;DHT22;56378;52.404;20.816;2023-03-31T08:31:07;12.50;84.80
69261;DHT22;56378;52.404;20.816;2023-03-31T08:33:33;12.80;86.20
69261;DHT22;56378;52.404;20.816;2023-03-31T08:36:07;13.20;84.70
69261;DHT22;56378;52.404;20.816;2023-03-31T08:38:35;13.50;81.20
69261;DHT22;56378;52.404;20.816;2023-03-31T08:41:03;13.50;81.10
69261;DHT22;56378;52.404;20.816;2023-03-31T08:43:39;13.30;80.40
69261;DHT22;56378;52.404;20.816;2023-03-31T08:46:09;13.30;80.50
69261;DHT22;56378;52.404;20.816;2023-03-31T08:48:48;13.10;81.00
69261;DHT22;56378;52.404;20.816;2023-03-31T08:54:00;12.70;83.00
69261;DHT22;56378;52.404;20.816;2023-03-31T08:56:29;12.60;84.50
69261;DHT22;56378;52.404;20.816;2023-03-31T08:58:58;12.50;84.70
69261;DHT22;56378;52.404;20.816;2023-03-31T09:01:43;12.60;85.60
69261;DHT22;56378;52.404;20.816;2023-03-31T09:07:08;12.80;84.60
69261;DHT22;56378;52.404;20.816;2023-03-31T09:09:59;12.70;83.90
69261;DHT22;56378;52.404;20.816;2023-03-31T09:13:05;12.60;85.50
69261;DHT22;56378;52.404;20.816;2023-03-31T09:18:34;12.40;85.80
69261;DHT22;56378;52.404;20.816;2023-03-31T09:23:50;12.60;85.80
69261;DHT22;56378;52.404;20.816;2023-03-31T09:26:26;12.60;85.10
69261;DHT22;56378;52.404;20.816;2023-03-31T09:28:55;12.80;84.50
69261;DHT22;56378;52.404;20.816;2023-03-31T09:31:22;12.90;85.50
69261;DHT22;56378;52.404;20.816;2023-03-31T09:33:52;13.00;83.30
69261;DHT22;56378;52.404;20.816;2023-03-31T09:36:20;13.20;83.60
69261;DHT22;56378;52.404;20.816;2023-03-31T09:38:49;13.50;81.20
69261;DHT22;56378;52.404;20.816;2023-03-31T09:41:16;13.60;81.00
69261;DHT22;56378;52.404;20.816;2023-03-31T09:43:44;13.80;80.60
69261;DHT22;56378;52.404;20.816;2023-03-31T09:46:32;13.90;79.30
69261;DHT22;56378;52.404;20.816;2023-03-31T09:49:03;14.10;78.20
69261;DHT22;56378;52.404;20.816;2023-03-31T09:51:35;14.20;77.90
69261;DHT22;56378;52.404;20.816;2023-03-31T09:56:48;14.40;76.20
69261;DHT22;56378;52.404;20.816;2023-03-31T09:59:19;14.40;76.10
69261;DHT22;56378;52.404;20.816;2023-03-31T10:01:50;14.50;76.30
69261;DHT22;56378;52.404;20.816;2023-03-31T10:04:23;14.50;73.90
69261;DHT22;56378;52.404;20.816;2023-03-31T10:06:50;14.50;74.30
69261;DHT22;56378;52.404;20.816;2023-03-31T10:09:19;14.60;74.20
69261;DHT22;56378;52.404;20.816;2023-03-31T10:11:58;14.70;74.80
69261;DHT22;56378;52.404;20.816;2023-03-31T10:17:03;15.10;72.40
69261;DHT22;56378;52.404;20.816;2023-03-31T10:19:35;15.30;71.50
69261;DHT22;56378;52.404;20.816;2023-03-31T10:22:08;15.20;70.70
69261;DHT22;56378;52.404;20.816;2023-03-31T10:24:41;15.10;72.30
69261;DHT22;56378;52.404;20.816;2023-03-31T10:27:28;15.10;71.70
69261;DHT22;56378;52.404;20.816;2023-03-31T10:29:56;15.10;71.70
69261;DHT22;56378;52.404;20.816;2023-03-31T10:32:27;15.10;71.20
69261;DHT22;56378;52.404;20.816;2023-03-31T10:37:58;14.90;72.80
69261;DHT22;56378;52.404;20.816;2023-03-31T10:40:29;15.10;71.70
69261;DHT22;56378;52.404;20.816;2023-03-31T10:45:36;15.30;69.80
69261;DHT22;56378;52.404;20.816;2023-03-31T10:48:03;15.30;69.10
69261;DHT22;56378;52.404;20.816;2023-03-31T10:50:33;15.20;68.60
69261;DHT22;56378;52.404;20.816;2023-03-31T10:53:05;15.00;68.20
69261;DHT22;56378;52.404;20.816;2023-03-31T11:12:41;16.60;65.30
69261;DHT22;56378;52.404;20.816;2023-03-31T11:23:41;17.40;62.20
69261;DHT22;56378;52.404;20.816;2023-03-31T11:31:38;16.90;62.30
69261;DHT22;56378;52.404;20.816;2023-03-31T11:42:02;16.80;65.00
69261;DHT22;56378;52.404;20.816;2023-03-31T11:44:39;17.20;63.50
69261;DHT22;56378;52.404;20.816;2023-03-31T11:47:17;17.60;59.20
69261;DHT22;56378;52.404;20.816;2023-03-31T11:49:51;17.60;60.50
69261;DHT22;56378;52.404;20.816;2023-03-31T11:52:26;18.00;58.20
69261;DHT22;56378;52.404;20.816;2023-03-31T11:54:58;17.70;58.00
69261;DHT22;56378;52.404;20.816;2023-03-31T12:00:54;18.70;58.80
69261;DHT22;56378;52.404;20.816;2023-03-31T12:06:07;20.50;51.60
69261;DHT22;56378;52.404;20.816;2023-03-31T12:11:23;21.70;48.10
69261;DHT22;56378;52.404;20.816;2023-03-31T12:16:57;21.30;47.90
69261;DHT22;56378;52.404;20.816;2023-03-31T12:19:29;21.10;48.20
69261;DHT22;56378;52.404;20.816;2023-03-31T12:22:14;21.50;47.00
69261;DHT22;56378;52.404;20.816;2023-03-31T12:24:41;21.50;47.90
69261;DHT22;56378;52.404;20.816;2023-03-31T12:27:15;21.40;46.80
69261;DHT22;56378;52.404;20.816;2023-03-31T12:29:53;23.10;44.90
69261;DHT22;56378;52.404;20.816;2023-03-31T12:32:31;24.60;40.60
69261;DHT22;56378;52.404;20.816;2023-03-31T12:43:01;24.40;40.00
69261;DHT22;56378;52.404;20.816;2023-03-31T12:45:36;23.10;42.00
69261;DHT22;56378;52.404;20.816;2023-03-31T12:48:14;24.00;41.40
69261;DHT22;56378;52.404;20.816;2023-03-31T12:56:20;21.60;44.70
69261;DHT22;56378;52.404;20.816;2023-03-31T12:58:46;22.20;44.10
69261;DHT22;56378;52.404;20.816;2023-03-31T13:14:11;22.20;42.70
69261;DHT22;56378;52.404;20.816;2023-03-31T13:16:38;21.70;43.60
69261;DHT22;56378;52.404;20.816;2023-03-31T13:19:04;21.90;43.60
69261;DHT22;56378;52.404;20.816;2023-03-31T13:21:30;23.30;40.80
69261;DHT22;56378;52.404;20.816;2023-03-31T13:24:00;22.50;41.80
69261;DHT22;56378;52.404;20.816;2023-03-31T13:29:17;20.20;46.30
69261;DHT22;56378;52.404;20.816;2023-03-31T13:32:22;19.40;48.50
69261;DHT22;56378;52.404;20.816;2023-03-31T13:34:58;18.70;50.10
69261;DHT22;56378;52.404;20.816;2023-03-31T13:37:51;18.40;51.60
69261;DHT22;56378;52.404;20.816;2023-03-31T13:40:51;18.00;52.80
69261;DHT22;56378;52.404;20.816;2023-03-31T13:52:03;17.10;55.90
69261;DHT22;56378;52.404;20.816;2023-03-31T14:05:27;16.00;59.20
69261;DHT22;56378;52.404;20.816;2023-03-31T14:08:01;15.90;59.40
69261;DHT22;56378;52.404;20.816;2023-03-31T14:10:30;15.80;60.00
69261;DHT22;56378;52.404;20.816;2023-03-31T14:13:16;15.90;60.00
69261;DHT22;56378;52.404;20.816;2023-03-31T14:15:49;16.00;60.40
69261;DHT22;56378;52.404;20.816;2023-03-31T14:18:24;16.10;60.30
69261;DHT22;56378;52.404;20.816;2023-03-31T14:29:17;16.70;57.20
69261;DHT22;56378;52.404;20.816;2023-03-31T14:37:11;16.40;58.00
69261;DHT22;56378;52.404;20.816;2023-03-31T14:39:43;16.40;58.60
69261;DHT22;56378;52.404;20.816;2023-03-31T14:42:18;16.30;58.80
69261;DHT22;56378;52.404;20.816;2023-03-31T14:44:46;16.20;59.20
69261;DHT22;56378;52.404;20.816;2023-03-31T14:47:19;16.20;59.20
69261;DHT22;56378;52.404;20.816;2023-03-31T14:49:45;16.20;58.60
69261;DHT22;56378;52.404;20.816;2023-03-31T14:52:17;16.20;58.50
69261;DHT22;56378;52.404;20.816;2023-03-31T14:54:46;16.30;58.50
69261;DHT22;56378;52.404;20.816;2023-03-31T14:57:26;16.40;57.80
69261;DHT22;56378;52.404;20.816;2023-03-31T14:59:54;16.30;57.20
69261;DHT22;56378;52.404;20.816;2023-03-31T15:02:39;16.20;57.70
69261;DHT22;56378;52.404;20.816;2023-03-31T15:05:36;16.10;57.60
69261;DHT22;56378;52.404;20.816;2023-03-31T15:08:05;15.90;57.10
69261;DHT22;56378;52.404;20.816;2023-03-31T15:10:42;15.90;57.40
69261;DHT22;56378;52.404;20.816;2023-03-31T15:13:15;15.80;58.50
69261;DHT22;56378;52.404;20.816;2023-03-31T15:15:43;15.70;57.60
69261;DHT22;56378;52.404;20.816;2023-03-31T15:18:12;15.80;58.60
69261;DHT22;56378;52.404;20.816;2023-03-31T15:20:43;15.90;57.30
69261;DHT22;56378;52.404;20.816;2023-03-31T15:23:25;16.00;56.60
69261;DHT22;56378;52.404;20.816;2023-03-31T15:26:19;16.00;56.90
69261;DHT22;56378;52.404;20.816;2023-03-31T15:29:10;16.00;57.00
69261;DHT22;56378;52.404;20.816;2023-03-31T15:31:39;16.00;56.80
69261;DHT22;56378;52.404;20.816;2023-03-31T15:34:25;16.00;56.90
69261;DHT22;56378;52.404;20.816;2023-03-31T15:36:56;15.90;57.20
69261;DHT22;56378;52.404;20.816;2023-03-31T15:39:23;15.60;57.70
69261;DHT22;56378;52.404;20.816;2023-03-31T15:41:51;15.40;58.10
69261;DHT22;56378;52.404;20.816;2023-03-31T15:47:12;15.20;59.30
69261;DHT22;56378;52.404;20.816;2023-03-31T15:49:56;15.10;59.40
69261;DHT22;56378;52.404;20.816;2023-03-31T15:52:34;15.10;60.80
69261;DHT22;56378;52.404;20.816;2023-03-31T15:55:30;15.00;60.40
69261;DHT22;56378;52.404;20.816;2023-03-31T15:57:59;14.80;61.40
69261;DHT22;56378;52.404;20.816;2023-03-31T16:00:50;14.70;62.30
69261;DHT22;56378;52.404;20.816;2023-03-31T16:03:31;14.50;62.40
69261;DHT22;56378;52.404;20.816;2023-03-31T16:06:29;14.30;64.10
69261;DHT22;56378;52.404;20.816;2023-03-31T16:09:23;14.00;65.20
69261;DHT22;56378;52.404;20.816;2023-03-31T16:11:56;13.60;66.30
69261;DHT22;56378;52.404;20.816;2023-03-31T16:14:33;13.40;67.40
69261;DHT22;56378;52.404;20.816;2023-03-31T16:17:51;13.30;67.90
69261;DHT22;56378;52.404;20.816;2023-03-31T16:20:03;13.20;68.50
69261;DHT22;56378;52.404;20.816;2023-03-31T16:22:40;13.00;69.40
69261;DHT22;56378;52.404;20.816;2023-03-31T16:25:13;12.90;69.70
69261;DHT22;56378;52.404;20.816;2023-03-31T16:27:55;12.70;70.00
69261;DHT22;56378;52.404;20.816;2023-03-31T16:30:39;12.70;69.70
69261;DHT22;56378;52.404;20.816;2023-03-31T16:35:35;12.50;70.70
69261;DHT22;56378;52.404;20.816;2023-03-31T16:38:05;12.40;70.90
69261;DHT22;56378;52.404;20.816;2023-03-31T16:40:38;12.30;71.20
69261;DHT22;56378;52.404;20.816;2023-03-31T16:45:33;12.20;71.70
69261;DHT22;56378;52.404;20.816;2023-03-31T16:47:59;12.00;72.50
69261;DHT22;56378;52.404;20.816;2023-03-31T16:50:24;12.00;72.70
69261;DHT22;56378;52.404;20.816;2023-03-31T16:52:50;11.90;72.70
69261;DHT22;56378;52.404;20.816;2023-03-31T16:55:16;11.90;72.90
69261;DHT22;56378;52.404;20.816;2023-03-31T16:57:42;11.80;73.30
69261;DHT22;56378;52.404;20.816;2023-03-31T17:00:08;11.80;73.50
69261;DHT22;56378;52.404;20.816;2023-03-31T17:02:35;11.70;73.40
69261;DHT22;56378;52.404;20.816;2023-03-31T17:05:01;11.70;73.70
69261;DHT22;56378;52.404;20.816;2023-03-31T17:07:26;11.60;73.90
69261;DHT22;56378;52.404;20.816;2023-03-31T17:09:53;11.60;73.80
69261;DHT22;56378;52.404;20.816;2023-03-31T17:12:18;11.60;74.40
69261;DHT22;56378;52.404;20.816;2023-03-31T17:14:44;11.50;74.70
69261;DHT22;56378;52.404;20.816;2023-03-31T17:17:11;11.50;74.90
69261;DHT22;56378;52.404;20.816;2023-03-31T17:19:37;11.40;75.00
69261;DHT22;56378;52.404;20.816;2023-03-31T17:22:02;11.40;75.50
69261;DHT22;56378;52.404;20.816;2023-03-31T17:24:28;11.40;75.70
69261;DHT22;56378;52.404;20.816;2023-03-31T17:26:54;11.30;76.20
69261;DHT22;56378;52.404;20.816;2023-03-31T17:29:20;11.30;77.00
69261;DHT22;56378;52.404;20.816;2023-03-31T17:31:46;11.30;78.20
69261;DHT22;56378;52.404;20.816;2023-03-31T17:34:11;11.30;79.00
69261;DHT22;56378;52.404;20.816;2023-03-31T17:36:37;11.30;80.70
69261;DHT22;56378;52.404;20.816;2023-03-31T17:39:03;11.20;83.90
69261;DHT22;56378;52.404;20.816;2023-03-31T17:41:30;11.10;87.70
69261;DHT22;56378;52.404;20.816;2023-03-31T17:43:56;10.90;90.40
69261;DHT22;56378;52.404;20.816;2023-03-31T17:46:24;10.80;91.30
69261;DHT22;56378;52.404;20.816;2023-03-31T17:48:50;10.60;93.30
69261;DHT22;56378;52.404;20.816;2023-03-31T17:51:19;10.40;95.50
69261;DHT22;56378;52.404;20.816;2023-03-31T17:53:46;10.20;96.60
69261;DHT22;56378;52.404;20.816;2023-03-31T17:56:14;10.10;97.70
69261;DHT22;56378;52.404;20.816;2023-03-31T17:58:40;9.90;99.10
69261;DHT22;56378;52.404;20.816;2023-03-31T18:01:07;9.90;99.80
69261;DHT22;56378;52.404;20.816;2023-03-31T18:03:34;9.90;99.90
69261;DHT22;56378;52.404;20.816;2023-03-31T18:06:04;9.90;99.90
69261;DHT22;56378;52.404;20.816;2023-03-31T18:08:31;9.80;99.90
69261;DHT22;56378;52.404;20.816;2023-03-31T18:10:58;9.80;99.90
69261;DHT22;56378;52.404;20.816;2023-03-31T18:13:23;9.80;99.90
69261;DHT22;56378;52.404;20.816;2023-03-31T18:15:50;9.70;99.90
69261;DHT22;56378;52.404;20.816;2023-03-31T18:18:18;9.70;99.90
69261;DHT22;56378;52.404;20.816;2023-03-31T18:20:44;9.60;99.90
69261;DHT22;56378;52.404;20.816;2023-03-31T18:23:11;9.50;99.90
69261;DHT22;56378;52.404;20.816;2023-03-31T18:25:37;9.50;99.90
69261;DHT22;56378;52.404;20.816;2023-03-31T18:28:03;9.50;99.90
69261;DHT22;56378;52.404;20.816;2023-03-31T18:30:29;9.40;99.90
69261;DHT22;56378;52.404;20.816;2023-03-31T18:32:55;9.30;99.90
69261;DHT22;56378;52.404;20.816;2023-03-31T18:35:21;9.30;99.90
69261;DHT22;56378;52.404;20.816;2023-03-31T18:37:47;9.30;99.90
69261;DHT22;56378;52.404;20.816;2023-03-31T18:40:14;9.30;99.90
69261;DHT22;56378;52.404;20.816;2023-03-31T18:42:40;9.40;99.90
69261;DHT22;56378;52.404;20.816;2023-03-31T18:45:07;9.40;99.90
69261;DHT22;56378;52.404;20.816;2023-03-31T18:47:34;9.40;99.90
69261;DHT22;56378;52.404;20.816;2023-03-31T18:50:01;9.40;99.90
69261;DHT22;56378;52.404;20.816;2023-03-31T18:52:27;9.40;99.90
69261;DHT22;56378;52.404;20.816;2023-03-31T18:54:53;9.30;99.90
69261;DHT22;56378;52.404;20.816;2023-03-31T18:57:20;9.30;99.90
69261;DHT22;56378;52.404;20.816;2023-03-31T18:59:46;9.40;99.90